Mill Springs, Kentucky
Current Conditions -  °F | °C
As of 4:13 PM on Sunday 23 Nov 2014 (Local Time) from KEKQ Reporting Station
Haze Haze  
Wind Chill: 57°   Ceiling: 4300
Heat Index: 57°   Visibility: 2mi
Dew Point: 54°   Wind: 13mph
Humidity: 88%   Direction: 130°SE
Pressure: 29.6"   Gusts: NA
Location:  36.93°N, 84.78°W
Report Text: KEKQ 232113Z AUTO 13011KT 2SM BR FEW022 BKN043 BKN065 14/12 A2960 RMK AO2 P0002 PRESFR
Loading
Personal Weather Stations






























Interactive Weather Map New forecast layout! Learn more

10-Day Weather Forecast

Advertisements
Track Severe Weather on mobile